createdAt,value
2023-08-29T00:01:59.073Z,100479.09
2023-08-29T00:04:26.757Z,100477.34
2023-08-29T00:06:54.425Z,100483.59
2023-08-29T00:09:22.746Z,100478.44
2023-08-29T00:11:50.437Z,100478.63
2023-08-29T00:14:18.188Z,100469.94
2023-08-29T00:16:46.016Z,100471.88
2023-08-29T00:19:16.612Z,100472.97
2023-08-29T00:21:44.322Z,100475.88
2023-08-29T00:24:11.980Z,100481.09
2023-08-29T00:26:39.601Z,100486.31
2023-08-29T00:29:07.362Z,100482.00
2023-08-29T00:31:35.126Z,100480.41
2023-08-29T00:34:02.844Z,100492.50
2023-08-29T00:36:33.938Z,100482.66
2023-08-29T00:39:01.721Z,100473.06
2023-08-29T00:41:29.457Z,100471.97
2023-08-29T00:43:58.615Z,100464.03
2023-08-29T00:46:27.873Z,100471.00
2023-08-29T00:48:56.283Z,100465.75
2023-08-29T00:51:25.529Z,100470.16
2023-08-29T00:53:54.709Z,100464.84
2023-08-29T00:56:22.518Z,100472.66
2023-08-29T00:58:50.232Z,100477.06
2023-08-29T01:01:18.720Z,100478.78
2023-08-29T01:03:46.688Z,100487.56
2023-08-29T01:06:16.713Z,100494.50
2023-08-29T01:08:45.020Z,100498.88
2023-08-29T01:11:17.731Z,100491.06
2023-08-29T01:13:52.469Z,100490.06
2023-08-29T01:16:22.487Z,100491.88
2023-08-29T01:18:51.265Z,100497.09
2023-08-29T01:21:27.052Z,100501.50
2023-08-29T01:23:57.581Z,100509.47
2023-08-29T01:26:27.575Z,100517.28
2023-08-29T01:28:56.223Z,100521.69
2023-08-29T01:31:24.308Z,100507.63
2023-08-29T01:33:52.146Z,100517.19
2023-08-29T01:36:19.854Z,100521.47
2023-08-29T01:38:47.505Z,100526.72
2023-08-29T01:41:15.214Z,100531.28
2023-08-29T01:43:44.325Z,100527.66
2023-08-29T01:46:12.768Z,100534.63
2023-08-29T01:48:41.002Z,100553.13
2023-08-29T01:51:08.775Z,100548.81
2023-08-29T01:53:39.876Z,100546.19
2023-08-29T01:56:09.755Z,100551.50
2023-08-29T01:58:38.053Z,100555.00
2023-08-29T02:01:21.470Z,100549.84
2023-08-29T02:03:51.135Z,100555.91
2023-08-29T02:06:20.299Z,100555.03
2023-08-29T02:08:47.957Z,100553.34
2023-08-29T02:11:15.794Z,100554.44
2023-08-29T02:13:43.491Z,100551.81
2023-08-29T02:16:13.364Z,100548.41
2023-08-29T02:18:41.423Z,100536.34
2023-08-29T02:21:09.118Z,100539.94
2023-08-29T02:23:36.791Z,100546.00
2023-08-29T02:26:06.914Z,100539.78
2023-08-29T02:28:35.306Z,100531.84
2023-08-29T02:31:06.325Z,100536.13
2023-08-29T02:33:36.724Z,100527.25
2023-08-29T02:36:05.582Z,100520.31
2023-08-29T02:38:34.058Z,100518.50
2023-08-29T02:41:01.791Z,100508.03
2023-08-29T02:43:29.936Z,100510.84
2023-08-29T02:45:57.837Z,100505.56
2023-08-29T02:48:25.852Z,100507.28
2023-08-29T02:50:54.973Z,100506.50
2023-08-29T02:53:22.785Z,100496.09
2023-08-29T02:55:51.844Z,100484.81
2023-08-29T02:58:19.926Z,100482.19
2023-08-29T03:00:48.697Z,100475.09
2023-08-29T03:03:16.709Z,100477.91
2023-08-29T03:05:44.427Z,100482.41
2023-08-29T03:08:13.594Z,100477.16
2023-08-29T03:10:41.363Z,100473.06
2023-08-29T03:13:09.394Z,100480.94
2023-08-29T03:15:37.217Z,100475.63
2023-08-29T03:18:05.506Z,100472.03
2023-08-29T03:20:34.498Z,100470.34
2023-08-29T03:23:02.182Z,100453.72
2023-08-29T03:25:31.227Z,100453.75
2023-08-29T03:27:58.866Z,100453.84
2023-08-29T03:30:27.135Z,100455.81
2023-08-29T03:32:56.105Z,100443.69
2023-08-29T03:35:24.168Z,100447.16
2023-08-29T03:37:52.124Z,100450.69
2023-08-29T03:40:20.215Z,100455.97
2023-08-29T03:42:49.491Z,100448.03
2023-08-29T03:45:17.178Z,100449.94
2023-08-29T03:47:44.894Z,100456.25
2023-08-29T03:50:12.645Z,100443.94
2023-08-29T03:52:40.414Z,100453.53
2023-08-29T03:55:09.668Z,100449.25
2023-08-29T03:57:38.115Z,100447.59
2023-08-29T04:00:11.699Z,100452.88
2023-08-29T04:02:42.288Z,100459.88
2023-08-29T04:05:15.555Z,100466.97
2023-08-29T04:07:43.833Z,100465.19
2023-08-29T04:10:11.756Z,100459.81
2023-08-29T04:12:40.476Z,100468.53
2023-08-29T04:15:12.193Z,100462.34
2023-08-29T04:17:40.202Z,100458.91
2023-08-29T04:20:09.629Z,100463.16
2023-08-29T04:22:39.361Z,100473.81
2023-08-29T04:25:07.768Z,100465.16
2023-08-29T04:27:37.047Z,100467.91
2023-08-29T04:30:05.600Z,100459.31
2023-08-29T04:32:38.085Z,100469.88
2023-08-29T04:35:07.155Z,100453.34
2023-08-29T04:37:35.040Z,100457.81
2023-08-29T04:40:02.776Z,100450.72
2023-08-29T04:42:30.605Z,100451.53
2023-08-29T04:44:58.296Z,100453.19
2023-08-29T04:47:26.160Z,100453.13
2023-08-29T04:49:55.519Z,100447.00
2023-08-29T04:52:23.308Z,100443.56
2023-08-29T04:54:51.085Z,100448.81
2023-08-29T04:57:18.791Z,100460.16
2023-08-29T04:59:46.463Z,100458.38
2023-08-29T05:02:14.186Z,100466.25
2023-08-29T05:04:43.391Z,100466.44
2023-08-29T05:07:12.943Z,100464.84
2023-08-29T05:09:40.696Z,100462.13
2023-08-29T05:12:11.368Z,100461.88
2023-08-29T05:14:39.616Z,100467.03
2023-08-29T05:17:07.650Z,100468.69
2023-08-29T05:19:35.371Z,100459.03
2023-08-29T05:22:03.172Z,100465.03
2023-08-29T05:24:32.666Z,100464.88
2023-08-29T05:27:00.346Z,100469.22
2023-08-29T05:29:27.958Z,100467.31
2023-08-29T05:31:55.662Z,100462.75
2023-08-29T05:34:23.279Z,100467.00
2023-08-29T05:36:51.520Z,100465.03
2023-08-29T05:39:19.182Z,100460.50
2023-08-29T05:41:48.933Z,100468.31
2023-08-29T05:44:16.655Z,100462.13
2023-08-29T05:46:44.817Z,100466.22
2023-08-29T05:49:12.468Z,100476.50
2023-08-29T05:51:40.285Z,100472.00
2023-08-29T05:54:08.080Z,100471.81
2023-08-29T05:56:35.798Z,100480.41
2023-08-29T05:59:04.853Z,100473.25
2023-08-29T06:01:32.510Z,100467.03
2023-08-29T06:04:00.324Z,100471.00
2023-08-29T06:06:27.997Z,100469.28
2023-08-29T06:08:55.676Z,100478.81
2023-08-29T06:11:23.324Z,100474.25
2023-08-29T06:13:52.718Z,100480.09
2023-08-29T06:16:22.803Z,100477.25
2023-08-29T06:18:50.629Z,100474.50
2023-08-29T06:21:18.433Z,100468.22
2023-08-29T06:23:46.095Z,100480.22
2023-08-29T06:26:13.864Z,100478.13
2023-08-29T06:28:41.707Z,100479.63
2023-08-29T06:31:09.607Z,100480.28
2023-08-29T06:33:39.198Z,100483.66
2023-08-29T06:36:07.055Z,100481.75
2023-08-29T06:38:36.005Z,100482.78
2023-08-29T06:41:05.754Z,100484.13
2023-08-29T06:43:33.462Z,100481.47
2023-08-29T06:46:01.183Z,100489.63
2023-08-29T06:48:28.896Z,100479.78
2023-08-29T06:50:58.061Z,100488.38
2023-08-29T06:53:27.779Z,100482.13
2023-08-29T06:55:55.453Z,100474.94
2023-08-29T06:58:23.145Z,100474.94
2023-08-29T07:00:50.875Z,100471.31
2023-08-29T07:03:18.581Z,100470.59
2023-08-29T07:05:46.456Z,100470.78
2023-08-29T07:08:15.472Z,100472.31
2023-08-29T07:10:43.117Z,100474.81
2023-08-29T07:13:10.876Z,100470.94
2023-08-29T07:15:38.569Z,100476.16
2023-08-29T07:18:07.226Z,100474.22
2023-08-29T07:20:35.816Z,100470.13
2023-08-29T07:23:03.864Z,100468.75
2023-08-29T07:25:40.186Z,100473.84
2023-08-29T07:28:09.063Z,100476.13
2023-08-29T07:30:37.938Z,100474.94
2023-08-29T07:33:05.926Z,100474.34
2023-08-29T07:35:33.639Z,100475.34
2023-08-29T07:38:01.375Z,100481.22
2023-08-29T07:40:29.051Z,100473.38
2023-08-29T07:42:58.199Z,100473.53
2023-08-29T07:45:25.928Z,100477.94
2023-08-29T07:47:53.697Z,100485.66
2023-08-29T07:50:21.535Z,100489.94
2023-08-29T07:52:49.297Z,100481.13
2023-08-29T07:55:17.015Z,100492.44
2023-08-29T07:57:44.698Z,100496.59
2023-08-29T08:00:14.433Z,100488.97
2023-08-29T08:02:42.464Z,100498.63
2023-08-29T08:05:11.496Z,100478.56
2023-08-29T08:07:39.232Z,100490.44
2023-08-29T08:10:07.516Z,100490.56
2023-08-29T08:12:36.005Z,100486.59
2023-08-29T08:15:05.492Z,100497.81
2023-08-29T08:17:34.680Z,100499.97
2023-08-29T08:20:06.581Z,100501.31
2023-08-29T08:22:34.243Z,100502.38
2023-08-29T08:25:01.983Z,100503.09
2023-08-29T08:27:30.913Z,100506.13
2023-08-29T08:29:58.587Z,100511.31
2023-08-29T08:32:26.403Z,100509.28
2023-08-29T08:34:56.446Z,100516.09
2023-08-29T08:37:24.305Z,100521.81
2023-08-29T08:39:51.980Z,100522.25
2023-08-29T08:42:20.549Z,100517.56
2023-08-29T08:44:48.579Z,100516.09
2023-08-29T08:47:16.235Z,100510.22
2023-08-29T08:49:44.700Z,100512.38
2023-08-29T08:52:14.841Z,100509.25
2023-08-29T08:54:43.044Z,100516.75
2023-08-29T08:57:12.940Z,100518.34
2023-08-29T08:59:40.858Z,100515.09
2023-08-29T09:02:11.342Z,100512.16
2023-08-29T09:04:39.110Z,100513.53
2023-08-29T09:07:06.820Z,100521.38
2023-08-29T09:09:35.862Z,100528.38
2023-08-29T09:12:03.592Z,100525.63
2023-08-29T09:14:32.081Z,100516.22
2023-08-29T09:17:00.742Z,100523.56
2023-08-29T09:19:34.305Z,100518.00
2023-08-29T09:22:02.189Z,100521.00
2023-08-29T09:24:33.710Z,100516.38
2023-08-29T09:27:05.035Z,100524.34
2023-08-29T09:29:32.790Z,100522.59
2023-08-29T09:32:00.788Z,100520.66
2023-08-29T09:34:29.290Z,100521.59
2023-08-29T09:36:57.522Z,100522.81
2023-08-29T09:39:25.684Z,100522.28
2023-08-29T09:42:00.650Z,100517.75
2023-08-29T09:44:29.997Z,100516.81
2023-08-29T09:46:58.185Z,100527.00
2023-08-29T09:49:32.191Z,100526.88
2023-08-29T09:52:02.260Z,100515.63
2023-08-29T09:54:30.671Z,100520.31
2023-08-29T09:57:01.859Z,100519.13
2023-08-29T09:59:32.060Z,100512.03
2023-08-29T10:02:00.050Z,100512.22
2023-08-29T10:04:29.022Z,100510.00
2023-08-29T10:06:59.645Z,100516.13
2023-08-29T10:09:28.694Z,100513.03
2023-08-29T10:11:56.815Z,100514.97
2023-08-29T10:14:25.114Z,100507.50
2023-08-29T10:16:55.180Z,100513.84
2023-08-29T10:19:23.106Z,100509.53
2023-08-29T10:21:51.578Z,100509.34
2023-08-29T10:24:19.490Z,100505.03
2023-08-29T10:26:47.331Z,100507.22
2023-08-29T10:29:15.039Z,100506.56
2023-08-29T10:31:43.957Z,100499.63
2023-08-29T10:34:14.987Z,100500.53
2023-08-29T10:36:42.788Z,100498.38
2023-08-29T10:39:14.462Z,100497.38
2023-08-29T10:41:48.478Z,100494.56
2023-08-29T10:44:25.376Z,100492.13
2023-08-29T10:46:53.791Z,100491.22
2023-08-29T10:49:24.068Z,100488.94
2023-08-29T10:52:09.398Z,100489.41
2023-08-29T10:54:37.193Z,100495.41
2023-08-29T10:57:27.047Z,100490.72
2023-08-29T10:59:55.003Z,100481.06
2023-08-29T11:02:23.102Z,100479.38
2023-08-29T11:04:56.401Z,100476.88
2023-08-29T11:07:26.694Z,100476.66
2023-08-29T11:10:13.957Z,100470.34
2023-08-29T11:13:00.255Z,100470.16
2023-08-29T11:16:01.100Z,100460.53
2023-08-29T11:18:31.218Z,100463.28
2023-08-29T11:21:04.964Z,100458.28
2023-08-29T11:23:34.984Z,100462.09
2023-08-29T11:26:02.912Z,100463.25
2023-08-29T11:28:32.393Z,100461.97
2023-08-29T11:31:00.662Z,100462.91
2023-08-29T11:33:32.252Z,100463.72
2023-08-29T11:36:03.932Z,100458.47
2023-08-29T11:38:32.160Z,100459.47
2023-08-29T11:41:12.272Z,100459.91
2023-08-29T11:44:18.447Z,100454.53
2023-08-29T11:46:36.051Z,100466.75
2023-08-29T11:49:12.379Z,100461.72
2023-08-29T11:51:41.506Z,100465.81
2023-08-29T11:54:24.083Z,100457.63
2023-08-29T11:56:51.728Z,100462.06
2023-08-29T11:59:19.505Z,100457.56
2023-08-29T12:01:47.327Z,100456.84
2023-08-29T12:04:15.126Z,100448.88
2023-08-29T12:06:44.166Z,100447.16
2023-08-29T12:09:22.903Z,100450.88
2023-08-29T12:11:50.621Z,100444.16
2023-08-29T12:14:19.274Z,100445.66
2023-08-29T12:16:53.622Z,100436.22
2023-08-29T12:19:21.343Z,100439.38
2023-08-29T12:21:56.076Z,100445.47
2023-08-29T12:24:23.831Z,100443.41
2023-08-29T12:26:51.451Z,100440.50
2023-08-29T12:29:19.127Z,100439.94
2023-08-29T12:31:46.957Z,100434.69
2023-08-29T12:34:14.643Z,100421.97
2023-08-29T12:36:42.419Z,100427.81
2023-08-29T12:39:14.792Z,100426.13
2023-08-29T12:41:43.967Z,100423.00
2023-08-29T12:44:11.628Z,100423.88
2023-08-29T12:46:39.410Z,100425.59
2023-08-29T12:49:07.149Z,100418.97
2023-08-29T12:51:34.957Z,100412.47
2023-08-29T12:54:03.795Z,100410.19
2023-08-29T12:56:32.885Z,100406.72
2023-08-29T12:59:00.603Z,100404.91
2023-08-29T13:01:29.007Z,100403.69
2023-08-29T13:03:57.540Z,100400.66
2023-08-29T13:06:26.459Z,100392.69
2023-08-29T13:08:54.815Z,100392.47
2023-08-29T13:11:22.493Z,100397.31
2023-08-29T13:13:52.040Z,100391.16
2023-08-29T13:16:20.252Z,100391.22
2023-08-29T13:18:48.282Z,100392.25
2023-08-29T13:21:16.159Z,100387.84
2023-08-29T13:23:43.844Z,100382.44
2023-08-29T13:26:11.499Z,100392.44
2023-08-29T13:28:39.283Z,100377.38
2023-08-29T13:31:08.947Z,100385.03
2023-08-29T13:33:37.159Z,100393.31
2023-08-29T13:36:05.107Z,100388.59
2023-08-29T13:38:32.714Z,100396.88
2023-08-29T13:41:00.418Z,100379.00
2023-08-29T13:43:28.137Z,100387.19
2023-08-29T13:45:55.917Z,100377.25
2023-08-29T13:48:25.047Z,100383.00
2023-08-29T13:50:53.557Z,100390.31
2023-08-29T13:53:21.237Z,100391.50
2023-08-29T13:55:51.103Z,100379.22
2023-08-29T13:58:19.085Z,100392.34
2023-08-29T14:00:48.961Z,100384.00
2023-08-29T14:03:29.197Z,100387.72
2023-08-29T14:06:06.031Z,100380.78
2023-08-29T14:08:34.058Z,100381.13
2023-08-29T14:11:03.173Z,100373.47
2023-08-29T14:13:33.310Z,100376.06
2023-08-29T14:16:04.455Z,100379.78
2023-08-29T14:18:32.579Z,100376.47
2023-08-29T14:21:00.289Z,100374.81
2023-08-29T14:23:29.611Z,100380.34
2023-08-29T14:25:57.340Z,100376.72
2023-08-29T14:28:26.448Z,100390.97
2023-08-29T14:30:54.305Z,100386.78
2023-08-29T14:33:22.059Z,100379.47
2023-08-29T14:35:55.583Z,100377.00
2023-08-29T14:38:23.314Z,100374.53
2023-08-29T14:40:52.399Z,100374.06
2023-08-29T14:43:20.166Z,100374.47
2023-08-29T14:45:47.830Z,100377.41
2023-08-29T14:48:15.644Z,100376.38
2023-08-29T14:50:45.439Z,100377.47
2023-08-29T14:53:13.231Z,100377.06
2023-08-29T14:55:40.946Z,100384.69
2023-08-29T14:58:10.352Z,100372.22
2023-08-29T15:00:42.169Z,100376.53
2023-08-29T15:03:10.642Z,100378.94
2023-08-29T15:05:38.550Z,100370.31
2023-08-29T15:08:06.721Z,100370.53
2023-08-29T15:10:34.578Z,100367.72
2023-08-29T15:13:02.280Z,100365.88
2023-08-29T15:15:31.531Z,100374.78
2023-08-29T15:17:59.328Z,100372.78
2023-08-29T15:20:29.477Z,100364.50
2023-08-29T15:22:57.144Z,100368.84
2023-08-29T15:25:25.096Z,100366.97
2023-08-29T15:27:52.805Z,100360.84
2023-08-29T15:30:20.462Z,100364.44
2023-08-29T15:32:49.662Z,100361.88
2023-08-29T15:35:17.455Z,100362.41
2023-08-29T15:37:45.740Z,100364.91
2023-08-29T15:40:13.505Z,100357.59
2023-08-29T15:42:41.285Z,100358.94
2023-08-29T15:45:10.058Z,100364.63
2023-08-29T15:47:37.833Z,100359.84
2023-08-29T15:50:07.907Z,100359.03
2023-08-29T15:52:35.564Z,100359.00
2023-08-29T15:55:05.502Z,100353.22
2023-08-29T15:57:33.325Z,100360.00
2023-08-29T16:00:01.517Z,100358.00
2023-08-29T16:02:29.680Z,100360.47
2023-08-29T16:04:57.685Z,100361.66
2023-08-29T16:07:26.996Z,100354.34
2023-08-29T16:09:54.964Z,100346.97
2023-08-29T16:12:22.638Z,100354.41
2023-08-29T16:14:50.507Z,100351.84
2023-08-29T16:17:18.598Z,100352.47
2023-08-29T16:19:46.724Z,100358.09
2023-08-29T16:22:14.517Z,100353.31
2023-08-29T16:24:43.690Z,100359.06
2023-08-29T16:27:11.390Z,100352.56
2023-08-29T16:29:39.727Z,100360.13
2023-08-29T16:32:07.977Z,100363.72
2023-08-29T16:34:36.106Z,100361.56
2023-08-29T16:37:04.324Z,100367.75
2023-08-29T16:39:34.083Z,100367.56
2023-08-29T16:42:04.156Z,100369.16
2023-08-29T16:44:32.092Z,100363.06
2023-08-29T16:47:03.663Z,100362.47
2023-08-29T16:49:31.931Z,100364.13
2023-08-29T16:52:00.370Z,100365.72
2023-08-29T16:54:28.933Z,100369.38
2023-08-29T16:56:57.713Z,100367.50
2023-08-29T16:59:27.492Z,100375.09
2023-08-29T17:01:55.881Z,100370.84
2023-08-29T17:04:26.038Z,100362.53
2023-08-29T17:06:54.025Z,100369.38
2023-08-29T17:09:22.848Z,100370.44
2023-08-29T17:11:52.668Z,100371.03
2023-08-29T17:14:25.287Z,100372.91
2023-08-29T17:16:55.066Z,100365.88
2023-08-29T17:19:23.527Z,100361.56
2023-08-29T17:21:57.089Z,100367.06
2023-08-29T17:24:32.397Z,100361.94
2023-08-29T17:27:03.765Z,100365.03
2023-08-29T17:29:32.295Z,100359.31
2023-08-29T17:32:02.369Z,100356.75
2023-08-29T17:34:33.141Z,100354.75
2023-08-29T17:37:00.987Z,100357.28
2023-08-29T17:39:29.036Z,100365.06
2023-08-29T17:41:56.808Z,100361.16
2023-08-29T17:44:24.666Z,100358.03
2023-08-29T17:46:52.371Z,100355.06
2023-08-29T17:49:21.539Z,100351.97
2023-08-29T17:51:49.998Z,100354.03
2023-08-29T17:54:18.232Z,100352.13
2023-08-29T17:56:46.511Z,100354.88
2023-08-29T17:59:14.209Z,100357.63
2023-08-29T18:01:41.919Z,100353.16
2023-08-29T18:04:10.584Z,100345.03
2023-08-29T18:06:39.597Z,100355.75
2023-08-29T18:09:07.263Z,100352.81
2023-08-29T18:11:35.023Z,100347.03
2023-08-29T18:14:02.736Z,100343.88
2023-08-29T18:16:30.546Z,100354.88
2023-08-29T18:19:00.616Z,100349.88
2023-08-29T18:21:28.667Z,100349.47
2023-08-29T18:23:57.990Z,100346.53
2023-08-29T18:26:25.761Z,100343.63
2023-08-29T18:28:53.456Z,100341.63
2023-08-29T18:31:21.154Z,100334.31
2023-08-29T18:33:48.960Z,100337.38
2023-08-29T18:36:16.768Z,100342.06
2023-08-29T18:38:44.677Z,100337.75
2023-08-29T18:41:13.901Z,100345.53
2023-08-29T18:43:41.603Z,100342.78
2023-08-29T18:46:09.650Z,100350.03
2023-08-29T18:48:37.439Z,100346.19
2023-08-29T18:51:05.191Z,100348.50
2023-08-29T18:53:32.891Z,100357.22
2023-08-29T18:56:00.629Z,100356.34
2023-08-29T18:58:29.739Z,100354.91
2023-08-29T19:00:57.488Z,100359.50
2023-08-29T19:03:25.179Z,100365.13
2023-08-29T19:05:53.124Z,100362.59
2023-08-29T19:08:21.085Z,100373.69
2023-08-29T19:10:50.381Z,100365.28
2023-08-29T19:13:18.143Z,100369.09
2023-08-29T19:15:47.916Z,100375.41
2023-08-29T19:18:15.855Z,100359.25
2023-08-29T19:20:44.376Z,100368.91
2023-08-29T19:23:12.104Z,100374.66
2023-08-29T19:25:40.456Z,100363.31
2023-08-29T19:28:09.743Z,100365.81
2023-08-29T19:30:37.659Z,100369.81
2023-08-29T19:33:11.909Z,100358.94
2023-08-29T19:35:40.139Z,100365.25
2023-08-29T19:38:08.839Z,100365.56
2023-08-29T19:40:36.715Z,100363.22
2023-08-29T19:43:05.357Z,100368.88
2023-08-29T19:45:33.379Z,100361.97
2023-08-29T19:48:01.237Z,100357.81
2023-08-29T19:50:31.302Z,100368.50
2023-08-29T19:52:59.108Z,100365.69
2023-08-29T19:55:26.993Z,100371.91
2023-08-29T19:57:54.649Z,100370.28
2023-08-29T20:00:22.343Z,100363.22
2023-08-29T20:02:50.851Z,100362.50
2023-08-29T20:05:18.720Z,100369.19
2023-08-29T20:07:47.806Z,100370.53
2023-08-29T20:10:15.738Z,100368.75
2023-08-29T20:12:43.475Z,100367.13
2023-08-29T20:15:11.769Z,100364.16
2023-08-29T20:17:39.632Z,100368.44
2023-08-29T20:20:08.953Z,100356.63
2023-08-29T20:22:36.756Z,100354.00
2023-08-29T20:25:10.243Z,100361.28
2023-08-29T20:27:37.991Z,100359.31
2023-08-29T20:30:07.486Z,100359.19
2023-08-29T20:32:35.393Z,100353.75
2023-08-29T20:35:03.085Z,100362.00
2023-08-29T20:37:30.828Z,100366.47
2023-08-29T20:39:58.749Z,100360.97
2023-08-29T20:42:28.160Z,100364.97
2023-08-29T20:44:58.124Z,100366.13
2023-08-29T20:47:25.895Z,100365.19
2023-08-29T20:49:53.802Z,100361.84
2023-08-29T20:52:21.458Z,100361.53
2023-08-29T20:54:49.256Z,100360.16
2023-08-29T20:57:16.981Z,100366.47
2023-08-29T20:59:46.562Z,100361.47
2023-08-29T21:02:14.345Z,100363.88
2023-08-29T21:04:42.104Z,100357.06
2023-08-29T21:07:10.313Z,100365.84
2023-08-29T21:09:38.201Z,100359.56
2023-08-29T21:12:06.391Z,100360.97
2023-08-29T21:14:34.137Z,100364.59
2023-08-29T21:17:03.778Z,100360.41
2023-08-29T21:19:31.804Z,100360.47
2023-08-29T21:21:59.516Z,100362.91
2023-08-29T21:24:27.930Z,100359.00
2023-08-29T21:26:55.593Z,100366.78
2023-08-29T21:29:23.288Z,100364.38
2023-08-29T21:31:51.055Z,100357.38
2023-08-29T21:34:20.260Z,100354.78
2023-08-29T21:36:47.979Z,100355.94
2023-08-29T21:39:15.693Z,100348.63
2023-08-29T21:41:43.472Z,100352.13
2023-08-29T21:44:11.963Z,100349.03
2023-08-29T21:46:39.727Z,100352.69
2023-08-29T21:49:07.452Z,100348.19
2023-08-29T21:51:36.485Z,100346.41
2023-08-29T21:54:04.140Z,100338.72
2023-08-29T21:56:31.861Z,100341.28
2023-08-29T21:58:59.609Z,100342.13
2023-08-29T22:01:27.376Z,100342.91
2023-08-29T22:03:55.298Z,100336.59
2023-08-29T22:06:23.006Z,100335.59
2023-08-29T22:08:52.093Z,100336.75
2023-08-29T22:11:19.760Z,100330.69
2023-08-29T22:13:47.436Z,100329.13
2023-08-29T22:16:15.307Z,100323.78
2023-08-29T22:18:42.965Z,100327.91
2023-08-29T22:21:10.680Z,100328.69
2023-08-29T22:23:38.326Z,100328.06
2023-08-29T22:26:08.192Z,100316.50
2023-08-29T22:28:35.949Z,100316.28
2023-08-29T22:31:03.956Z,100321.28
2023-08-29T22:33:32.798Z,100317.56
2023-08-29T22:36:00.815Z,100310.75
2023-08-29T22:38:28.601Z,100311.56
2023-08-29T22:41:09.450Z,100312.38
2023-08-29T22:43:40.880Z,100314.94
2023-08-29T22:46:09.563Z,100312.44
2023-08-29T22:48:37.303Z,100309.88
2023-08-29T22:51:05.325Z,100305.53
2023-08-29T22:53:33.027Z,100313.63
2023-08-29T22:56:03.675Z,100306.59
2023-08-29T22:58:33.366Z,100304.81
2023-08-29T23:01:06.481Z,100304.94
2023-08-29T23:03:34.126Z,100303.16
2023-08-29T23:06:01.855Z,100296.16
2023-08-29T23:08:29.633Z,100301.59
2023-08-29T23:11:00.161Z,100298.53
2023-08-29T23:13:28.154Z,100292.34
2023-08-29T23:16:02.948Z,100292.28
2023-08-29T23:18:30.937Z,100289.06
2023-08-29T23:20:58.607Z,100277.66
2023-08-29T23:23:26.328Z,100278.94
2023-08-29T23:25:56.260Z,100283.28
2023-08-29T23:28:23.897Z,100280.00
2023-08-29T23:30:52.554Z,100277.50
2023-08-29T23:33:22.575Z,100281.91
2023-08-29T23:35:50.487Z,100282.06
2023-08-29T23:38:18.340Z,100288.97
2023-08-29T23:40:47.931Z,100285.41
2023-08-29T23:43:15.595Z,100275.88
2023-08-29T23:45:43.292Z,100281.28
2023-08-29T23:48:11.934Z,100272.53
2023-08-29T23:50:41.364Z,100281.06
2023-08-29T23:53:09.348Z,100276.59
2023-08-29T23:55:36.998Z,100276.38
2023-08-29T23:58:04.918Z,100280.16
